Time;durP1;ratioP1;P1;durP2;ratioP2;P2;SDS_P1;SDS_P2;PMS_P1;PMS_P2;Temp;Humidity;BMP_temperature;BMP_pressure;BME280_temperature;BME280_humidity;BME280_pressure;Samples;Min_cycle;Max_cycle;Signal;HPM_P1;HPM_P2
2022/04/22 00:00:04;;;;;;;;;;;;;;;6.03;100.00;99718.09;4975822;28;839;-57
2022/04/22 00:02:31;;;;;;;;;;;;;;;6.09;100.00;99707.59;4975696;28;1118;-57
2022/04/22 00:04:58;;;;;;;;;;;;;;;6.17;100.00;99714.75;4975678;28;867;-57
2022/04/22 00:07:25;;;;;;;;;;;;;;;6.21;100.00;99712.00;4975504;28;859;-57
2022/04/22 00:09:52;;;;;;;;;;;;;;;6.23;100.00;99704.19;4975617;28;1029;-57
2022/04/22 00:12:18;;;;;;;;;;;;;;;6.24;100.00;99709.31;4975588;28;1961;-57
2022/04/22 00:14:44;;;;;;;;;;;;;;;6.24;100.00;99714.81;4975531;28;879;-58
2022/04/22 00:17:11;;;;;;;;;;;;;;;6.19;100.00;99714.34;4975483;28;882;-57
2022/04/22 00:19:38;;;;;;;;;;;;;;;6.12;100.00;99718.63;4975340;28;867;-58
2022/04/22 00:22:04;;;;;;;;;;;;;;;6.06;100.00;99714.63;4975547;28;820;-57
2022/04/22 00:24:31;;;;;;;;;;;;;;;6.08;100.00;99708.72;4975340;28;875;-57
2022/04/22 00:26:58;;;;;;;;;;;;;;;6.07;100.00;99704.41;4975174;28;1201;-57
2022/04/22 00:29:23;;;;;;;;;;;;;;;6.11;100.00;99708.00;4975247;28;811;-57
2022/04/22 00:31:51;;;;;;;;;;;;;;;6.29;100.00;99699.94;4975081;28;1907;-57
2022/04/22 00:34:17;;;;;;;;;;;;;;;6.54;100.00;99702.97;4975245;28;807;-57
2022/04/22 00:36:43;;;;;;;;;;;;;;;6.71;100.00;99690.56;4975147;28;831;-57
2022/04/22 00:39:10;;;;;;;;;;;;;;;6.85;100.00;99693.44;4975212;28;859;-57
2022/04/22 00:41:37;;;;;;;;;;;;;;;6.94;100.00;99693.13;4974943;28;859;-57
2022/04/22 00:44:03;;;;;;;;;;;;;;;6.99;100.00;99691.97;4975115;28;867;-57
2022/04/22 00:46:30;;;;;;;;;;;;;;;6.96;100.00;99699.03;4975214;28;1046;-58
2022/04/22 00:48:57;;;;;;;;;;;;;;;6.83;99.42;99682.03;4974814;28;935;-57
2022/04/22 00:51:24;;;;;;;;;;;;;;;6.73;98.55;99693.72;4975105;28;1946;-57
2022/04/22 00:53:52;;;;;;;;;;;;;;;6.62;99.05;99687.34;4958053;28;819;-57
2022/04/22 00:56:18;;;;;;;;;;;;;;;6.50;99.20;99702.13;4974888;28;902;-58
2022/04/22 00:58:47;;;;;;;;;;;;;;;6.36;99.54;99711.03;4974957;28;862;-57
2022/04/22 01:01:13;;;;;;;;;;;;;;;6.20;99.54;99708.50;4974582;28;944;-57
2022/04/22 01:09:47;;;;;;;;;;;;;;;6.02;100.00;99700.06;4974661;28;812;-58
2022/04/22 01:12:01;;;;;;;;;;;;;;;5.73;100.00;99710.63;4959826;28;1997;-57
2022/04/22 01:14:28;;;;;;;;;;;;;;;5.67;100.00;99714.06;4974327;28;811;-57
2022/04/22 01:16:55;;;;;;;;;;;;;;;5.62;100.00;99719.91;4974358;28;815;-57
2022/04/22 01:19:21;;;;;;;;;;;;;;;5.60;100.00;99722.22;4974190;28;919;-57
2022/04/22 01:21:48;;;;;;;;;;;;;;;5.60;100.00;99717.50;4974528;28;871;-57
2022/04/22 01:24:15;;;;;;;;;;;;;;;5.61;100.00;99713.63;4974279;28;831;-57
2022/04/22 01:26:42;;;;;;;;;;;;;;;5.63;100.00;99710.50;4961092;28;1359;-57
2022/04/22 01:29:08;;;;;;;;;;;;;;;5.67;100.00;99714.84;4974150;28;858;-57
2022/04/22 01:31:35;;;;;;;;;;;;;;;5.70;100.00;99700.41;4974035;28;1914;-57
2022/04/22 01:34:02;;;;;;;;;;;;;;;5.72;100.00;99689.09;4974057;28;803;-57
2022/04/22 01:36:28;;;;;;;;;;;;;;;5.75;100.00;99690.28;4974287;28;874;-57
2022/04/22 01:38:55;;;;;;;;;;;;;;;5.79;100.00;99685.66;4973950;28;911;-57
2022/04/22 01:41:22;;;;;;;;;;;;;;;5.88;100.00;99688.88;4973715;28;918;-57
2022/04/22 01:43:49;;;;;;;;;;;;;;;5.94;100.00;99690.13;4973943;28;879;-57
2022/04/22 01:46:16;;;;;;;;;;;;;;;6.03;100.00;99689.88;4973995;28;928;-57
2022/04/22 01:48:42;;;;;;;;;;;;;;;6.07;100.00;99691.50;4973864;28;870;-57
2022/04/22 01:51:09;;;;;;;;;;;;;;;6.13;100.00;99694.69;4974004;28;1955;-57
2022/04/22 01:53:36;;;;;;;;;;;;;;;6.20;100.00;99699.47;4973621;28;811;-57
2022/04/22 01:56:03;;;;;;;;;;;;;;;6.24;100.00;99697.56;4973863;28;815;-58
2022/04/22 01:58:30;;;;;;;;;;;;;;;6.26;100.00;99695.22;4973217;28;831;-57
2022/04/22 02:00:56;;;;;;;;;;;;;;;6.24;100.00;99698.34;4973609;28;811;-57
2022/04/22 02:03:23;;;;;;;;;;;;;;;6.19;100.00;99695.94;4973568;28;898;-57
2022/04/22 02:05:49;;;;;;;;;;;;;;;6.18;100.00;99696.31;4973497;28;874;-57
2022/04/22 02:08:16;;;;;;;;;;;;;;;6.15;100.00;99697.84;4973465;28;843;-57
2022/04/22 02:10:43;;;;;;;;;;;;;;;6.13;100.00;99695.47;4973260;28;1890;-57
2022/04/22 02:13:10;;;;;;;;;;;;;;;6.13;100.00;99690.00;4973339;28;799;-57
2022/04/22 02:15:37;;;;;;;;;;;;;;;6.15;100.00;99695.13;4973368;28;807;-57
2022/04/22 02:18:04;;;;;;;;;;;;;;;6.18;100.00;99683.38;4973281;28;928;-57
2022/04/22 02:20:31;;;;;;;;;;;;;;;6.20;100.00;99691.25;4973213;28;843;-57
2022/04/22 02:22:57;;;;;;;;;;;;;;;6.20;100.00;99694.75;4973128;28;855;-57
2022/04/22 02:25:24;;;;;;;;;;;;;;;6.20;100.00;99688.50;4973221;28;919;-57
2022/04/22 02:30:36;;;;;;;;;;;;;;;6.29;100.00;99692.53;4973140;28;700;-57
2022/04/22 02:33:03;;;;;;;;;;;;;;;6.33;100.00;99698.03;4972999;28;1906;-57
2022/04/22 02:35:30;;;;;;;;;;;;;;;6.37;100.00;99700.81;4973011;28;819;-57
2022/04/22 02:37:56;;;;;;;;;;;;;;;6.41;100.00;99688.72;4972928;28;874;-57
2022/04/22 02:45:54;;;;;;;;;;;;;;;6.49;100.00;99681.34;4973193;28;654;-57
2022/04/22 02:48:21;;;;;;;;;;;;;;;6.51;100.00;99676.28;4972936;28;848;-57
2022/04/22 02:50:48;;;;;;;;;;;;;;;6.49;100.00;99671.16;4972806;28;1952;-57
2022/04/22 02:53:15;;;;;;;;;;;;;;;6.45;100.00;99667.56;4972980;28;982;-57
2022/04/22 02:55:47;;;;;;;;;;;;;;;6.43;100.00;99672.66;4972729;28;910;-57
2022/04/22 02:58:14;;;;;;;;;;;;;;;6.44;100.00;99667.94;4972808;28;803;-57
2022/04/22 03:00:41;;;;;;;;;;;;;;;6.42;100.00;99668.34;4972808;28;878;-57
2022/04/22 03:03:07;;;;;;;;;;;;;;;6.40;100.00;99669.88;4972674;28;890;-57
2022/04/22 03:05:34;;;;;;;;;;;;;;;6.37;100.00;99676.91;4972754;28;886;-57
2022/04/22 03:08:01;;;;;;;;;;;;;;;6.36;100.00;99680.03;4972847;28;947;-57
2022/04/22 03:10:29;;;;;;;;;;;;;;;6.34;100.00;99659.25;4974134;28;838;-57
2022/04/22 03:12:56;;;;;;;;;;;;;;;6.35;100.00;99654.53;4976529;28;1936;-57
2022/04/22 03:15:23;;;;;;;;;;;;;;;6.42;100.00;99662.03;4976708;28;795;-57
2022/04/22 03:17:49;;;;;;;;;;;;;;;6.48;100.00;99652.28;4976503;28;894;-57
2022/04/22 03:20:16;;;;;;;;;;;;;;;6.48;100.00;99655.81;4976657;28;874;-57
2022/04/22 03:22:44;;;;;;;;;;;;;;;6.53;100.00;99647.25;4976428;28;827;-57
2022/04/22 03:25:11;;;;;;;;;;;;;;;6.60;100.00;99638.28;4976378;28;974;-57
2022/04/22 03:27:38;;;;;;;;;;;;;;;6.68;100.00;99644.66;4976445;28;1156;-58
2022/04/22 03:30:05;;;;;;;;;;;;;;;6.73;100.00;99639.56;4976284;28;905;-57
2022/04/22 03:32:32;;;;;;;;;;;;;;;6.79;100.00;99634.53;4976359;28;2001;-58
2022/04/22 03:34:59;;;;;;;;;;;;;;;6.82;100.00;99625.50;4976430;28;819;-58
2022/04/22 03:37:26;;;;;;;;;;;;;;;6.83;100.00;99627.09;4976100;28;915;-57
2022/04/22 03:39:53;;;;;;;;;;;;;;;6.85;100.00;99626.69;4976050;28;894;-57
2022/04/22 03:42:19;;;;;;;;;;;;;;;6.87;100.00;99618.88;4975957;28;937;-58
2022/04/22 03:44:46;;;;;;;;;;;;;;;6.92;100.00;99618.53;4976031;28;820;-58
2022/04/22 03:47:12;;;;;;;;;;;;;;;6.94;100.00;99622.47;4975948;28;920;-57
2022/04/22 03:49:39;;;;;;;;;;;;;;;6.94;100.00;99633.44;4975886;28;863;-57
2022/04/22 03:52:06;;;;;;;;;;;;;;;6.93;100.00;99631.06;4975935;28;1887;-57
2022/04/22 03:54:32;;;;;;;;;;;;;;;6.93;100.00;99639.31;4975888;28;902;-57
2022/04/22 03:59:44;;;;;;;;;;;;;;;6.90;100.00;99634.59;4976111;28;618;-58
2022/04/22 04:02:11;;;;;;;;;;;;;;;6.93;100.00;99636.56;4975805;28;843;-58
2022/04/22 04:04:37;;;;;;;;;;;;;;;6.99;100.00;99631.53;4975740;28;804;-57
2022/04/22 04:07:04;;;;;;;;;;;;;;;7.06;100.00;99646.09;4975653;28;811;-58
2022/04/22 04:17:46;;;;;;;;;;;;;;;7.08;100.00;99664.94;4975468;28;634;-58
2022/04/22 04:23:17;;;;;;;;;;;;;;;7.05;100.00;99683.00;4974776;28;642;-57
2022/04/22 04:25:45;;;;;;;;;;;;;;;7.11;100.00;99683.44;4975518;28;950;-58
2022/04/22 04:28:13;;;;;;;;;;;;;;;7.21;100.00;99681.91;4975623;28;1016;-58
2022/04/22 04:30:40;;;;;;;;;;;;;;;7.32;100.00;99696.53;4975466;28;887;-58
2022/04/22 04:33:07;;;;;;;;;;;;;;;7.41;100.00;99690.69;4975063;28;1902;-58
2022/04/22 04:35:35;;;;;;;;;;;;;;;7.44;100.00;99681.66;4975239;28;895;-57
2022/04/22 04:38:02;;;;;;;;;;;;;;;7.42;100.00;99690.28;4974824;28;915;-57
2022/04/22 04:40:29;;;;;;;;;;;;;;;7.42;100.00;99692.25;4974980;28;883;-57
2022/04/22 04:42:56;;;;;;;;;;;;;;;7.44;100.00;99707.19;4975317;28;819;-57
2022/04/22 04:45:24;;;;;;;;;;;;;;;7.48;100.00;99719.00;4974961;28;884;-57
2022/04/22 04:47:50;;;;;;;;;;;;;;;7.52;100.00;99717.06;4974831;28;919;-57
2022/04/22 04:50:17;;;;;;;;;;;;;;;7.59;100.00;99716.31;4975019;28;796;-58
2022/04/22 04:52:43;;;;;;;;;;;;;;;7.66;100.00;99719.13;4974699;28;1886;-58
2022/04/22 04:55:13;;;;;;;;;;;;;;;7.68;100.00;99711.28;4974850;28;867;-57
2022/04/22 04:57:41;;;;;;;;;;;;;;;7.71;100.00;99717.97;4974692;28;859;-57
2022/04/22 05:00:07;;;;;;;;;;;;;;;7.72;100.00;99708.53;4974626;28;850;-57
2022/04/22 05:02:33;;;;;;;;;;;;;;;7.70;100.00;99699.88;4974614;28;859;-58
2022/04/22 05:05:01;;;;;;;;;;;;;;;7.68;100.00;99689.28;4974534;28;1035;-58
2022/04/22 05:07:27;;;;;;;;;;;;;;;7.70;100.00;99680.63;4974501;28;843;-58
2022/04/22 05:09:54;;;;;;;;;;;;;;;7.75;100.00;99677.53;4974549;28;819;-58
2022/04/22 05:12:21;;;;;;;;;;;;;;;7.82;100.00;99665.75;4974442;28;1947;-58
2022/04/22 05:14:47;;;;;;;;;;;;;;;7.90;100.00;99659.09;4974494;28;833;-58
2022/04/22 05:17:14;;;;;;;;;;;;;;;7.95;100.00;99640.22;4974634;28;835;-58
2022/04/22 05:19:41;;;;;;;;;;;;;;;8.06;100.00;99645.75;4974276;28;902;-58
2022/04/22 05:22:08;;;;;;;;;;;;;;;8.20;100.00;99647.78;4974139;28;931;-58
2022/04/22 05:24:37;;;;;;;;;;;;;;;8.35;100.00;99654.88;4974258;28;807;-58
2022/04/22 05:27:04;;;;;;;;;;;;;;;8.47;100.00;99675.81;4974013;28;1292;-58
2022/04/22 05:35:01;;;;;;;;;;;;;;;8.43;100.00;99719.06;4973156;28;657;-58
2022/04/22 05:37:42;;;;;;;;;;;;;;;8.39;100.00;99724.53;4973898;28;876;-58
2022/04/22 05:40:10;;;;;;;;;;;;;;;8.30;100.00;99729.63;4974423;28;847;-58
2022/04/22 05:42:38;;;;;;;;;;;;;;;8.13;100.00;99727.63;4974210;28;989;-58
2022/04/22 05:45:06;;;;;;;;;;;;;;;8.03;100.00;99709.88;4973883;28;859;-58
2022/04/22 05:47:33;;;;;;;;;;;;;;;8.01;100.00;99712.22;4973750;28;1010;-58
2022/04/22 05:50:00;;;;;;;;;;;;;;;7.95;100.00;99713.75;4973952;28;884;-59
2022/04/22 05:52:27;;;;;;;;;;;;;;;7.86;100.00;99722.38;4973961;28;1882;-59
2022/04/22 05:54:54;;;;;;;;;;;;;;;7.83;100.00;99727.84;4973703;28;804;-59
2022/04/22 05:57:21;;;;;;;;;;;;;;;7.80;100.00;99721.16;4973590;28;851;-59
2022/04/22 05:59:48;;;;;;;;;;;;;;;7.85;100.00;99720.81;4973614;28;815;-59
2022/04/22 06:02:14;;;;;;;;;;;;;;;7.93;100.00;99730.66;4973558;28;804;-59
2022/04/22 06:04:40;;;;;;;;;;;;;;;8.08;100.00;99741.72;4973569;28;831;-59
2022/04/22 06:07:07;;;;;;;;;;;;;;;8.27;100.00;99733.16;4973540;28;832;-59
2022/04/22 06:12:19;;;;;;;;;;;;;;;8.72;100.00;99744.69;4973390;28;1878;-59
2022/04/22 06:14:46;;;;;;;;;;;;;;;8.84;100.00;99737.25;4973392;28;878;-59
2022/04/22 06:17:13;;;;;;;;;;;;;;;8.93;100.00;99743.16;4973434;28;841;-59
2022/04/22 06:19:40;;;;;;;;;;;;;;;8.99;100.00;99744.34;4973302;28;832;-59
2022/04/22 06:22:07;;;;;;;;;;;;;;;8.86;100.00;99752.22;4973166;28;848;-59
2022/04/22 06:24:34;;;;;;;;;;;;;;;8.79;100.00;99764.00;4973153;28;803;-59
2022/04/22 06:27:00;;;;;;;;;;;;;;;8.79;100.00;99763.22;4973125;28;1368;-59
2022/04/22 06:29:27;;;;;;;;;;;;;;;8.78;100.00;99761.63;4973087;28;902;-59
2022/04/22 06:31:54;;;;;;;;;;;;;;;8.79;100.00;99760.47;4973207;28;1969;-59
2022/04/22 06:34:20;;;;;;;;;;;;;;;8.85;100.00;99753.38;4973027;28;835;-59
2022/04/22 06:36:47;;;;;;;;;;;;;;;8.92;100.00;99745.13;4972903;28;1047;-59
2022/04/22 06:39:14;;;;;;;;;;;;;;;8.99;100.00;99742.38;4972907;28;820;-59
2022/04/22 06:47:11;;;;;;;;;;;;;;;9.25;100.00;99756.94;4972944;28;634;-59
2022/04/22 06:49:38;;;;;;;;;;;;;;;9.37;100.00;99755.78;4972907;28;816;-59
2022/04/22 06:52:07;;;;;;;;;;;;;;;9.40;100.00;99754.97;4972592;28;1878;-59
2022/04/22 06:54:33;;;;;;;;;;;;;;;9.49;100.00;99755.34;4972876;28;834;-59
2022/04/22 06:57:02;;;;;;;;;;;;;;;9.63;100.00;99754.53;4972776;28;947;-59
2022/04/22 06:59:31;;;;;;;;;;;;;;;9.89;100.00;99756.06;4972791;28;854;-59
2022/04/22 07:01:58;;;;;;;;;;;;;;;10.04;100.00;99759.56;4972686;28;835;-59
2022/04/22 07:04:25;;;;;;;;;;;;;;;10.02;100.00;99764.69;4972667;28;807;-59
2022/04/22 07:06:51;;;;;;;;;;;;;;;10.15;100.00;99767.81;4972640;28;787;-59
2022/04/22 07:09:18;;;;;;;;;;;;;;;10.28;100.00;99770.91;4972884;28;823;-61
2022/04/22 07:11:45;;;;;;;;;;;;;;;10.36;100.00;99764.19;4972527;28;1906;-60
2022/04/22 07:14:12;;;;;;;;;;;;;;;10.36;100.00;99776.03;4972690;28;823;-60
2022/04/22 07:16:43;;;;;;;;;;;;;;;10.32;100.00;99777.25;4955237;28;1238;-60
2022/04/22 07:19:09;;;;;;;;;;;;;;;10.35;100.00;99781.97;4972528;28;883;-60
2022/04/22 07:21:36;;;;;;;;;;;;;;;10.48;100.00;99783.09;4972514;28;879;-59
2022/04/22 07:24:02;;;;;;;;;;;;;;;10.50;100.00;99788.22;4972582;28;827;-59
2022/04/22 07:26:30;;;;;;;;;;;;;;;10.37;100.00;99787.88;4972505;28;1175;-60
2022/04/22 07:28:59;;;;;;;;;;;;;;;10.18;100.00;99784.38;4972449;28;796;-60
2022/04/22 07:31:28;;;;;;;;;;;;;;;10.02;100.00;99789.53;4973120;28;1963;-60
2022/04/22 07:33:55;;;;;;;;;;;;;;;9.96;100.00;99791.13;4972630;28;894;-60
2022/04/22 07:36:21;;;;;;;;;;;;;;;9.89;100.00;99800.22;4955299;28;1656;-59
2022/04/22 07:38:47;;;;;;;;;;;;;;;9.81;100.00;99799.47;4972600;28;879;-60
2022/04/22 07:41:17;;;;;;;;;;;;;;;9.73;100.00;99799.84;4973352;28;823;-59
2022/04/22 07:46:47;;;;;;;;;;;;;;;9.52;100.00;99798.72;4972468;28;622;-59
2022/04/22 07:49:13;;;;;;;;;;;;;;;9.56;100.00;99807.00;4972347;28;855;-59
2022/04/22 07:51:40;;;;;;;;;;;;;;;9.63;100.00;99815.25;4972181;28;1907;-59
2022/04/22 07:54:12;;;;;;;;;;;;;;;9.73;100.00;99811.72;4972258;28;875;-60
2022/04/22 07:56:41;;;;;;;;;;;;;;;9.90;100.00;99812.06;4955098;28;1214;-61
2022/04/22 07:59:08;;;;;;;;;;;;;;;9.98;100.00;99816.38;4975849;28;851;-61
2022/04/22 08:01:35;;;;;;;;;;;;;;;10.06;100.00;99820.69;4958406;28;1494;-61
2022/04/22 08:04:03;;;;;;;;;;;;;;;10.10;100.00;99817.94;4975755;28;824;-61
2022/04/22 08:06:30;;;;;;;;;;;;;;;10.21;100.00;99819.47;4975748;28;819;-61
2022/04/22 08:08:57;;;;;;;;;;;;;;;10.31;100.00;99814.34;4975677;28;836;-61
2022/04/22 08:11:24;;;;;;;;;;;;;;;10.45;100.00;99816.25;4975455;28;1949;-61
2022/04/22 08:13:50;;;;;;;;;;;;;;;10.56;100.00;99820.56;4975599;28;807;-62
2022/04/22 08:16:16;;;;;;;;;;;;;;;10.51;100.00;99814.66;4975803;28;824;-61
2022/04/22 08:18:43;;;;;;;;;;;;;;;10.44;100.00;99817.47;4975604;28;800;-61
2022/04/22 08:21:10;;;;;;;;;;;;;;;10.41;100.00;99813.50;4975569;28;851;-61
2022/04/22 08:23:36;;;;;;;;;;;;;;;10.35;100.00;99817.91;4975478;28;858;-61
2022/04/22 08:26:04;;;;;;;;;;;;;;;10.34;100.00;99819.06;4975718;28;1146;-61
2022/04/22 08:28:30;;;;;;;;;;;;;;;10.31;100.00;99815.13;4975885;28;918;-61
2022/04/22 08:30:57;;;;;;;;;;;;;;;10.28;100.00;99804.84;4975351;28;1903;-61
2022/04/22 08:33:23;;;;;;;;;;;;;;;10.23;100.00;99800.53;4957937;28;950;-61
2022/04/22 08:35:51;;;;;;;;;;;;;;;10.26;100.00;99795.38;4975459;28;835;-61
2022/04/22 08:38:18;;;;;;;;;;;;;;;10.35;100.00;99787.50;4975436;28;824;-61
2022/04/22 08:40:46;;;;;;;;;;;;;;;10.49;100.00;99795.72;4975417;28;828;-61
2022/04/22 08:43:18;;;;;;;;;;;;;;;10.70;100.00;99786.53;4975243;28;866;-61
2022/04/22 08:45:44;;;;;;;;;;;;;;;10.74;100.00;99765.19;4974993;28;937;-60
2022/04/22 08:50:57;;;;;;;;;;;;;;;11.03;100.00;99748.38;4974939;28;1882;-60
2022/04/22 08:53:27;;;;;;;;;;;;;;;11.22;99.87;99739.56;4974875;28;811;-60
2022/04/22 08:55:57;;;;;;;;;;;;;;;11.41;100.00;99720.78;4974842;28;850;-60
2022/04/22 08:58:24;;;;;;;;;;;;;;;11.69;98.99;99716.94;4974822;28;902;-59
2022/04/22 09:00:51;;;;;;;;;;;;;;;11.90;99.11;99717.94;4974758;28;823;-60
2022/04/22 09:03:18;;;;;;;;;;;;;;;12.08;99.65;99699.13;4974556;28;871;-59
2022/04/22 09:05:45;;;;;;;;;;;;;;;12.33;99.27;99707.13;4974533;28;843;-59
2022/04/22 09:08:12;;;;;;;;;;;;;;;12.41;98.19;99702.25;4974473;28;858;-59
2022/04/22 09:10:40;;;;;;;;;;;;;;;12.48;97.06;99693.03;4974595;28;583;-59
2022/04/22 09:13:09;;;;;;;;;;;;;;;12.38;96.91;99686.47;4974413;28;1938;-59
2022/04/22 09:15:36;;;;;;;;;;;;;;;12.35;97.85;99662.34;4974400;28;898;-59
2022/04/22 09:18:09;;;;;;;;;;;;;;;12.32;96.26;99652.88;4974394;28;1017;-59
2022/04/22 09:20:36;;;;;;;;;;;;;;;12.16;94.38;99616.69;4974353;28;909;-59
2022/04/22 09:23:20;;;;;;;;;;;;;;;11.98;95.42;99580.94;4974251;28;926;-59
2022/04/22 09:25:47;;;;;;;;;;;;;;;12.11;97.13;99576.38;4974516;28;977;-59
2022/04/22 09:28:13;;;;;;;;;;;;;;;12.39;97.86;99572.38;4974052;28;1357;-59
2022/04/22 09:30:42;;;;;;;;;;;;;;;12.68;96.41;99574.69;4974065;28;1001;-59
2022/04/22 09:33:09;;;;;;;;;;;;;;;12.87;94.53;99565.63;4973938;28;1982;-59
2022/04/22 09:42:38;;;;;;;;;;;;;;;12.94;94.18;99570.28;4973972;28;855;-59
2022/04/22 09:43:52;;;;;;;;;;;;;;;13.36;92.91;99570.69;4973980;28;732;-59
2022/04/22 09:46:30;;;;;;;;;;;;;;;13.50;93.63;99577.94;4973903;28;867;-59
2022/04/22 09:48:58;;;;;;;;;;;;;;;13.68;91.18;99578.38;4973762;28;795;-59
2022/04/22 09:51:26;;;;;;;;;;;;;;;13.74;90.91;99580.63;4973676;28;1953;-59
2022/04/22 09:54:00;;;;;;;;;;;;;;;13.90;89.64;99580.69;4974027;28;804;-59
2022/04/22 09:56:27;;;;;;;;;;;;;;;14.02;89.76;99568.13;4973571;28;935;-59
2022/04/22 10:27:48;;;;;;;;;;;;;;;16.25;86.25;99583.22;4934114;29;1548;-58
2022/04/22 10:30:14;;;;;;;;;;;;;;;16.80;83.17;99580.25;4935183;29;894;-58
2022/04/22 10:32:44;;;;;;;;;;;;;;;16.87;81.86;99587.59;4949767;29;1935;-58
2022/04/22 10:35:12;;;;;;;;;;;;;;;16.68;80.90;99595.75;4934640;29;873;-58
2022/04/22 10:37:41;;;;;;;;;;;;;;;16.08;80.88;99599.25;4934770;29;855;-58
2022/04/22 10:40:18;;;;;;;;;;;;;;;15.75;82.06;99606.28;4934626;29;969;-58
2022/04/22 10:42:45;;;;;;;;;;;;;;;15.55;84.78;99609.19;4934585;29;1027;-58
2022/04/22 10:47:57;;;;;;;;;;;;;;;15.80;83.75;99612.06;4934808;29;677;-58
2022/04/22 10:50:23;;;;;;;;;;;;;;;15.85;82.96;99602.38;4934589;29;871;-58
2022/04/22 10:53:05;;;;;;;;;;;;;;;15.87;84.76;99592.34;4934382;29;1953;-58
2022/04/22 10:55:36;;;;;;;;;;;;;;;15.93;83.15;99592.56;4934389;29;854;-58
2022/04/22 10:58:23;;;;;;;;;;;;;;;15.97;84.30;99598.81;4934605;29;859;-59
2022/04/22 11:00:54;;;;;;;;;;;;;;;16.08;82.86;99615.22;4934380;29;1811;-59
2022/04/22 11:03:22;;;;;;;;;;;;;;;16.11;82.34;99608.78;4934399;29;910;-58
2022/04/22 11:05:53;;;;;;;;;;;;;;;16.35;82.17;99603.63;4934231;29;871;-58
2022/04/22 11:08:20;;;;;;;;;;;;;;;16.68;78.80;99598.56;4934361;29;795;-59
2022/04/22 11:10:48;;;;;;;;;;;;;;;16.60;77.35;99594.47;4934313;29;1036;-59
2022/04/22 11:13:29;;;;;;;;;;;;;;;17.00;80.55;99599.50;4932887;29;1883;-59
2022/04/22 11:15:59;;;;;;;;;;;;;;;17.88;78.78;99584.78;4934247;29;954;-59
2022/04/22 11:18:26;;;;;;;;;;;;;;;18.69;76.42;99579.16;4934533;29;898;-59
2022/04/22 11:20:58;;;;;;;;;;;;;;;19.42;68.47;99584.06;4934440;29;1005;-59
2022/04/22 11:23:33;;;;;;;;;;;;;;;19.43;69.01;99601.66;4934219;29;823;-59
2022/04/22 11:26:00;;;;;;;;;;;;;;;19.52;71.18;99596.03;4943864;28;1218;-59
2022/04/22 11:28:26;;;;;;;;;;;;;;;19.74;67.93;99595.88;4972569;28;854;-59
2022/04/22 11:30:53;;;;;;;;;;;;;;;19.23;68.61;99585.34;4972793;28;791;-59
2022/04/22 11:33:23;;;;;;;;;;;;;;;18.50;67.41;99584.75;4974967;28;1914;-59
2022/04/22 11:35:52;;;;;;;;;;;;;;;18.04;70.68;99576.19;4976311;28;795;-59
2022/04/22 11:38:18;;;;;;;;;;;;;;;17.97;75.01;99572.91;4976329;28;803;-59
2022/04/22 11:40:47;;;;;;;;;;;;;;;17.79;72.89;99574.31;4976180;28;917;-59
2022/04/22 11:43:15;;;;;;;;;;;;;;;17.75;75.89;99556.91;4976074;28;879;-59
2022/04/22 11:45:43;;;;;;;;;;;;;;;18.05;75.95;99574.97;4976029;28;875;-59
2022/04/22 11:48:10;;;;;;;;;;;;;;;18.22;72.23;99566.31;4976051;28;925;-59
2022/04/22 11:50:41;;;;;;;;;;;;;;;18.19;75.12;99551.22;4976049;28;823;-59
2022/04/22 11:53:15;;;;;;;;;;;;;;;18.22;73.52;99561.50;4975938;28;1944;-59
2022/04/22 11:55:43;;;;;;;;;;;;;;;18.04;72.81;99562.19;4975761;28;954;-59
2022/04/22 11:58:12;;;;;;;;;;;;;;;17.69;73.88;99576.28;4975729;28;935;-59
2022/04/22 12:06:16;;;;;;;;;;;;;;;17.17;73.76;99558.25;4976042;28;703;-59
2022/04/22 12:08:55;;;;;;;;;;;;;;;17.01;73.04;99561.22;4975716;28;815;-59
2022/04/22 12:11:23;;;;;;;;;;;;;;;17.09;74.51;99568.91;4975705;28;1943;-58
2022/04/22 12:13:51;;;;;;;;;;;;;;;17.22;73.14;99554.06;4975880;28;863;-58
2022/04/22 12:16:20;;;;;;;;;;;;;;;17.20;73.51;99557.34;4942491;28;907;-58
2022/04/22 12:18:48;;;;;;;;;;;;;;;17.17;72.86;99549.09;4975515;28;978;-59
2022/04/22 12:21:15;;;;;;;;;;;;;;;17.37;76.19;99557.13;4975681;28;876;-59
2022/04/22 12:23:43;;;;;;;;;;;;;;;17.48;75.77;99549.94;4975365;28;916;-59
2022/04/22 12:26:19;;;;;;;;;;;;;;;17.19;70.45;99547.38;4975313;28;1205;-58
2022/04/22 12:28:58;;;;;;;;;;;;;;;16.97;75.76;99541.81;4975321;28;870;-59
2022/04/22 12:31:24;;;;;;;;;;;;;;;17.03;76.47;99533.63;4975129;28;1891;-59
2022/04/22 12:34:04;;;;;;;;;;;;;;;17.13;77.49;99533.25;4975566;28;875;-59
2022/04/22 12:36:51;;;;;;;;;;;;;;;17.09;76.63;99531.78;4975210;28;1036;-59
2022/04/22 12:39:33;;;;;;;;;;;;;;;17.15;77.03;99527.19;4974845;28;1979;-59
2022/04/22 12:42:00;;;;;;;;;;;;;;;17.32;77.30;99527.78;4975150;28;830;-59
2022/04/22 12:44:27;;;;;;;;;;;;;;;17.62;78.22;99522.69;4974596;28;807;-59
2022/04/22 12:52:32;;;;;;;;;;;;;;;19.70;72.78;99494.34;4974799;28;1932;-59
2022/04/22 12:55:04;;;;;;;;;;;;;;;20.56;68.70;99493.69;4975094;28;795;-60
2022/04/22 12:57:31;;;;;;;;;;;;;;;21.01;68.07;99493.84;4974901;28;827;-60
2022/04/22 12:59:58;;;;;;;;;;;;;;;21.20;67.66;99494.44;4974761;28;910;-61
2022/04/22 13:02:29;;;;;;;;;;;;;;;21.36;67.16;99493.97;4974705;28;799;-61
2022/04/22 13:04:59;;;;;;;;;;;;;;;21.35;61.70;99486.03;4975109;28;796;-61
2022/04/22 13:07:38;;;;;;;;;;;;;;;21.26;65.08;99486.88;4941258;28;882;-61
2022/04/22 13:10:04;;;;;;;;;;;;;;;21.08;62.49;99481.44;4974657;28;882;-60
2022/04/22 13:12:31;;;;;;;;;;;;;;;20.82;66.19;99479.19;4974486;28;1952;-61
2022/04/22 13:14:57;;;;;;;;;;;;;;;20.54;64.55;99487.78;4974500;28;863;-61
2022/04/22 13:17:24;;;;;;;;;;;;;;;20.17;64.18;99482.41;4974426;28;862;-62
2022/04/22 13:19:52;;;;;;;;;;;;;;;19.40;66.96;99482.09;4974377;28;928;-61
2022/04/22 13:22:19;;;;;;;;;;;;;;;18.67;67.28;99475.28;4974246;28;827;-61
2022/04/22 13:24:46;;;;;;;;;;;;;;;18.20;65.00;99459.69;4974263;28;1007;-61
2022/04/22 13:27:14;;;;;;;;;;;;;;;17.92;68.46;99454.03;4973911;28;1354;-61
2022/04/22 13:29:41;;;;;;;;;;;;;;;17.94;67.44;99452.34;4974280;28;875;-61
2022/04/22 13:32:08;;;;;;;;;;;;;;;18.10;71.36;99454.09;4974133;28;1972;-61
2022/04/22 13:34:34;;;;;;;;;;;;;;;18.29;73.52;99440.91;4974103;28;847;-62
2022/04/22 13:37:01;;;;;;;;;;;;;;;18.38;71.64;99439.38;4974169;28;823;-62
2022/04/22 13:39:28;;;;;;;;;;;;;;;18.49;71.18;99442.50;4974012;28;819;-62
2022/04/22 13:41:55;;;;;;;;;;;;;;;18.42;70.93;99435.19;4974043;28;811;-62
2022/04/22 13:52:45;;;;;;;;;;;;;;;18.01;71.22;99417.72;4973601;28;1933;-61
2022/04/22 13:55:12;;;;;;;;;;;;;;;18.05;71.81;99415.56;4972999;28;800;-61
2022/04/22 13:57:39;;;;;;;;;;;;;;;18.22;73.77;99406.88;4973670;28;816;-60
2022/04/22 14:00:06;;;;;;;;;;;;;;;18.50;73.95;99408.44;4973648;28;839;-61
2022/04/22 14:02:32;;;;;;;;;;;;;;;18.69;70.94;99397.22;4973634;28;827;-60
2022/04/22 14:04:59;;;;;;;;;;;;;;;18.70;65.76;99387.59;4956318;28;894;-60
2022/04/22 14:07:26;;;;;;;;;;;;;;;18.51;67.58;99390.41;4973470;28;799;-60
2022/04/22 14:09:52;;;;;;;;;;;;;;;18.36;66.80;99393.03;4973837;28;759;-60
2022/04/22 14:12:19;;;;;;;;;;;;;;;18.35;70.38;99385.91;4973334;28;1922;-60
2022/04/22 14:14:46;;;;;;;;;;;;;;;18.59;73.23;99390.88;4973370;28;871;-60
2022/04/22 14:17:14;;;;;;;;;;;;;;;18.63;70.23;99382.34;4973323;28;919;-60
2022/04/22 14:19:41;;;;;;;;;;;;;;;18.62;70.92;99384.34;4973268;28;863;-60
2022/04/22 14:22:07;;;;;;;;;;;;;;;18.62;70.95;99380.75;4973295;28;799;-59
2022/04/22 14:24:34;;;;;;;;;;;;;;;18.59;70.81;99374.09;4973275;28;827;-59
2022/04/22 14:27:02;;;;;;;;;;;;;;;18.68;72.32;99378.91;4973024;28;1281;-60
2022/04/22 14:29:28;;;;;;;;;;;;;;;18.89;69.08;99363.19;4973197;28;815;-59
2022/04/22 14:31:54;;;;;;;;;;;;;;;18.97;69.73;99370.78;4973333;28;1961;-59
2022/04/22 14:34:21;;;;;;;;;;;;;;;19.03;69.55;99364.53;4973094;28;889;-59
2022/04/22 14:36:48;;;;;;;;;;;;;;;19.33;65.62;99362.72;4973183;28;862;-59
2022/04/22 14:39:15;;;;;;;;;;;;;;;19.69;64.25;99355.38;4955645;28;915;-59
2022/04/22 14:41:42;;;;;;;;;;;;;;;20.10;67.75;99355.75;4973031;28;819;-59
2022/04/22 14:44:11;;;;;;;;;;;;;;;20.57;66.54;99354.13;4972937;28;867;-59
2022/04/22 14:46:39;;;;;;;;;;;;;;;20.75;65.58;99358.81;4955632;28;1336;-59
2022/04/22 14:49:06;;;;;;;;;;;;;;;20.80;64.68;99349.69;4972886;28;986;-59
2022/04/22 14:51:32;;;;;;;;;;;;;;;20.86;68.44;99352.59;4972581;28;1886;-59